createdAt,value
2023-04-06T00:00:08.925Z,1.6
2023-04-06T00:05:08.949Z,1.6
2023-04-06T00:10:08.025Z,1.7
2023-04-06T00:15:08.082Z,1.7
2023-04-06T00:20:08.133Z,1.6
2023-04-06T00:25:08.163Z,1.6
2023-04-06T00:30:08.203Z,1.2
2023-04-06T00:35:08.267Z,1.2
2023-04-06T00:40:08.318Z,1.2
2023-04-06T00:45:08.351Z,1.2
2023-04-06T00:50:08.370Z,1.1
2023-04-06T00:55:08.463Z,1.1
2023-04-06T01:00:08.517Z,1.3
2023-04-06T01:05:08.652Z,1.3
2023-04-06T01:10:08.806Z,1.1
2023-04-06T01:15:08.825Z,1.1
2023-04-06T01:20:08.900Z,0.8
2023-04-06T01:25:09.015Z,0.8
2023-04-06T01:30:08.088Z,0.8
2023-04-06T01:35:08.169Z,0.8
2023-04-06T01:40:08.222Z,0.7
2023-04-06T01:45:08.483Z,0.7
2023-04-06T01:50:08.613Z,0.6
2023-04-06T01:55:08.742Z,0.6
2023-04-06T02:00:08.764Z,0.6
2023-04-06T02:05:08.790Z,0.6
2023-04-06T02:10:08.830Z,0.6
2023-04-06T02:15:08.895Z,0.6
2023-04-06T02:20:08.946Z,0.4
2023-04-06T02:25:08.010Z,0.4
2023-04-06T02:30:08.067Z,0.4
2023-04-06T02:35:08.085Z,0.4
2023-04-06T02:40:08.155Z,0.4
2023-04-06T02:45:08.230Z,0.4
2023-04-06T02:50:08.292Z,0.3
2023-04-06T02:55:08.355Z,0.3
2023-04-06T03:00:08.359Z,0.3
2023-04-06T03:05:08.424Z,0.3
2023-04-06T03:10:08.502Z,0.4
2023-04-06T03:15:08.595Z,0.4
2023-04-06T03:20:08.659Z,0.3
2023-04-06T03:25:08.688Z,0.3
2023-04-06T03:30:08.837Z,0.3
2023-04-06T03:35:08.867Z,0.3
2023-04-06T03:40:08.921Z,0.4
2023-04-06T03:45:08.014Z,0.4
2023-04-06T03:50:08.045Z,0.4
2023-04-06T03:55:08.134Z,0.4
2023-04-06T04:00:08.163Z,0.6
2023-04-06T04:05:13.338Z,0.6
2023-04-06T04:10:04.753Z,0.3
2023-04-06T04:15:03.109Z,0.3
2023-04-06T04:20:03.490Z,0.3
2023-04-06T04:25:04.511Z,0.3
2023-04-06T04:30:03.782Z,0.3
2023-04-06T04:35:03.901Z,0.3
2023-04-06T04:40:04.198Z,0.3
2023-04-06T04:45:05.910Z,0.1
2023-04-06T04:50:15.348Z,0.1
2023-04-06T04:55:11.290Z,0.1
2023-04-06T05:00:07.330Z,0.1
2023-04-06T05:05:06.370Z,0.3
2023-04-06T05:10:06.371Z,0.3
2023-04-06T05:15:13.651Z,0.3
2023-04-06T05:20:06.283Z,0.3
2023-04-06T05:25:07.294Z,0.3
2023-04-06T05:30:06.915Z,0.3
2023-04-06T05:35:06.245Z,0.4
2023-04-06T05:40:10.409Z,0.4
2023-04-06T05:45:06.539Z,0.6
2023-04-06T05:50:07.039Z,0.6
2023-04-06T05:55:08.450Z,0.7
2023-04-06T06:00:07.098Z,1.1
2023-04-06T06:05:13.170Z,1.1
2023-04-06T06:10:14.613Z,1.2
2023-04-06T06:15:15.739Z,1.2
2023-04-06T06:20:13.320Z,1.6
2023-04-06T06:25:15.273Z,1.6
2023-04-06T06:30:13.638Z,2.0
2023-04-06T06:35:14.047Z,2.0
2023-04-06T06:40:16.126Z,2.7
2023-04-06T06:45:13.115Z,2.7
2023-04-06T06:50:13.897Z,3.5
2023-04-06T06:55:09.370Z,3.5
2023-04-06T07:00:13.808Z,4.3
2023-04-06T07:05:27.022Z,4.3
2023-04-06T07:10:03.082Z,5.0
2023-04-06T07:15:03.491Z,5.0
2023-04-06T07:20:03.295Z,5.5
2023-04-06T07:25:05.020Z,5.5
2023-04-06T07:30:05.095Z,5.5
2023-04-06T07:35:04.424Z,6.0
2023-04-06T07:40:03.086Z,6.0
2023-04-06T07:45:14.566Z,6.6
2023-04-06T07:50:05.132Z,6.6
2023-04-06T07:55:03.568Z,7.6
2023-04-06T08:00:06.301Z,7.9
2023-04-06T08:05:04.754Z,7.9
2023-04-06T08:10:03.815Z,8.0
2023-04-06T08:15:05.685Z,8.0
2023-04-06T08:20:06.412Z,9.0
2023-04-06T08:25:05.501Z,9.0
2023-04-06T08:30:03.594Z,9.0
2023-04-06T08:35:04.108Z,9.0
2023-04-06T08:40:02.305Z,9.6
2023-04-06T08:45:05.824Z,10.1
2023-04-06T08:50:04.228Z,10.1
2023-04-06T08:55:08.316Z,10.8
2023-04-06T09:00:03.558Z,10.8
2023-04-06T09:05:05.654Z,11.1
2023-04-06T09:10:04.225Z,11.1
2023-04-06T09:15:03.127Z,11.0
2023-04-06T09:20:06.240Z,11.0
2023-04-06T09:25:02.766Z,10.8
2023-04-06T09:30:04.906Z,10.8
2023-04-06T09:35:05.247Z,11.0
2023-04-06T09:40:06.933Z,11.0
2023-04-06T09:45:03.851Z,11.3
2023-04-06T09:50:05.091Z,11.6
2023-04-06T09:55:07.716Z,11.6
2023-04-06T10:00:05.493Z,11.8
2023-04-06T10:05:03.714Z,11.8
2023-04-06T10:10:03.767Z,11.6
2023-04-06T10:15:03.408Z,11.6
2023-04-06T10:20:03.418Z,12.3
2023-04-06T10:25:04.210Z,12.3
2023-04-06T10:30:02.855Z,12.8
2023-04-06T10:35:09.066Z,12.8
2023-04-06T10:40:04.087Z,12.3
2023-04-06T10:45:07.325Z,12.3
2023-04-06T10:50:04.865Z,11.6
2023-04-06T10:55:07.861Z,11.6
2023-04-06T11:00:03.240Z,12.0
2023-04-06T11:05:04.354Z,11.6
2023-04-06T11:10:15.578Z,11.6
2023-04-06T11:15:03.711Z,11.6
2023-04-06T11:20:04.877Z,11.6
2023-04-06T11:25:03.474Z,11.6
2023-04-06T11:30:03.951Z,11.6
2023-04-06T11:35:04.353Z,11.6
2023-04-06T11:40:06.318Z,12.1
2023-04-06T11:45:04.222Z,12.1
2023-04-06T11:50:05.176Z,11.6
2023-04-06T11:55:04.385Z,11.6
2023-04-06T12:00:06.136Z,11.8
2023-04-06T12:05:03.284Z,11.8
2023-04-06T12:10:03.106Z,12.6
2023-04-06T12:15:02.723Z,12.6
2023-04-06T12:20:17.605Z,12.8
2023-04-06T12:25:02.728Z,12.3
2023-04-06T12:30:03.626Z,12.3
2023-04-06T12:35:04.543Z,12.5
2023-04-06T12:40:03.793Z,12.5
2023-04-06T12:45:05.141Z,11.8
2023-04-06T12:50:04.135Z,12.1
2023-04-06T12:55:05.877Z,11.6
2023-04-06T13:00:07.056Z,11.6
2023-04-06T13:05:03.170Z,11.3
2023-04-06T13:10:04.195Z,11.3
2023-04-06T13:15:03.855Z,11.1
2023-04-06T13:20:04.400Z,10.6
2023-04-06T13:25:02.554Z,10.5
2023-04-06T13:30:02.807Z,10.1
2023-04-06T13:35:03.024Z,9.8
2023-04-06T13:40:02.158Z,9.5
2023-04-06T13:45:02.573Z,9.3
2023-04-06T13:50:02.776Z,9.0
2023-04-06T13:55:03.211Z,8.8
2023-04-06T14:00:05.089Z,8.8
2023-04-06T14:05:02.519Z,8.8
2023-04-06T14:10:02.732Z,8.8
2023-04-06T14:15:02.950Z,9.0
2023-04-06T14:20:02.253Z,8.8
2023-04-06T14:25:02.428Z,8.8
2023-04-06T14:30:02.751Z,8.6
2023-04-06T14:35:04.061Z,8.6
2023-04-06T14:40:02.761Z,8.5
2023-04-06T14:45:03.033Z,7.5
2023-04-06T14:50:02.233Z,7.4
2023-04-06T14:55:02.549Z,7.0
2023-04-06T15:00:02.752Z,7.0
2023-04-06T15:05:03.020Z,6.9
2023-04-06T15:10:02.218Z,6.9
2023-04-06T15:15:02.374Z,7.0
2023-04-06T15:20:02.506Z,7.0
2023-04-06T15:25:02.620Z,7.4
2023-04-06T15:30:02.903Z,7.0
2023-04-06T15:35:03.096Z,7.0
2023-04-06T15:40:02.274Z,7.0
2023-04-06T15:45:02.557Z,7.0
2023-04-06T15:50:02.905Z,6.9
2023-04-06T15:55:02.166Z,7.0
2023-04-06T16:00:02.546Z,7.1
2023-04-06T16:05:02.722Z,7.1
2023-04-06T16:10:02.989Z,6.9
2023-04-06T16:15:02.202Z,6.9
2023-04-06T16:20:02.525Z,6.9
2023-04-06T16:25:02.753Z,6.6
2023-04-06T16:35:03.136Z,7.0
2023-04-06T16:40:02.316Z,7.0
2023-04-06T16:45:02.553Z,6.9
2023-04-06T16:50:05.804Z,6.6
2023-04-06T16:55:02.451Z,6.6
2023-04-06T17:00:02.726Z,6.6
2023-04-06T17:05:02.983Z,6.6
2023-04-06T17:10:02.242Z,6.5
2023-04-06T17:15:02.588Z,6.5
2023-04-06T17:20:02.848Z,6.6
2023-04-06T17:25:03.077Z,6.6
2023-04-06T17:30:02.502Z,6.5
2023-04-06T17:35:02.588Z,6.6
2023-04-06T17:40:02.936Z,6.5
2023-04-06T17:45:02.107Z,6.5
2023-04-06T17:50:02.379Z,6.5
2023-04-06T17:55:02.521Z,6.6
2023-04-06T18:00:02.656Z,6.4
2023-04-06T18:05:03.407Z,6.6
2023-04-06T18:10:02.640Z,6.6
2023-04-06T18:15:02.975Z,6.5
2023-04-06T18:20:02.242Z,6.5
2023-04-06T18:25:02.471Z,6.5
2023-04-06T18:30:02.688Z,6.6
2023-04-06T18:35:02.902Z,6.6
2023-04-06T18:40:03.064Z,6.6
2023-04-06T18:45:02.232Z,6.6
2023-04-06T18:50:02.394Z,6.6
2023-04-06T18:55:02.552Z,6.6
2023-04-06T19:00:02.805Z,6.6
2023-04-06T19:05:03.356Z,6.6
2023-04-06T19:10:02.591Z,6.5
2023-04-06T19:15:02.706Z,6.6
2023-04-06T19:20:02.877Z,6.9
2023-04-06T19:25:03.232Z,6.9
2023-04-06T19:30:02.304Z,6.6
2023-04-06T19:35:02.493Z,6.6
2023-04-06T19:40:02.836Z,7.0
2023-04-06T19:45:03.084Z,6.6
2023-04-06T19:50:02.240Z,6.6
2023-04-06T19:55:02.457Z,6.6
2023-04-06T20:00:02.731Z,6.6
2023-04-06T20:05:02.878Z,6.6
2023-04-06T20:10:02.051Z,6.6
2023-04-06T20:15:02.519Z,6.9
2023-04-06T20:20:02.684Z,6.9
2023-04-06T20:25:03.102Z,7.0
2023-04-06T20:30:02.188Z,6.6
2023-04-06T20:35:02.615Z,6.9
2023-04-06T20:40:02.789Z,6.9
2023-04-06T20:45:03.047Z,7.0
2023-04-06T20:50:02.239Z,6.9
2023-04-06T20:55:02.451Z,6.9
2023-04-06T21:00:02.631Z,7.0
2023-04-06T21:05:15.719Z,6.9
2023-04-06T21:10:08.795Z,7.0
2023-04-06T21:15:08.823Z,7.0
2023-04-06T21:20:08.907Z,6.9
2023-04-06T21:25:08.961Z,7.0
2023-04-06T21:30:08.040Z,7.0
2023-04-06T21:35:08.069Z,7.0
2023-04-06T21:40:08.141Z,7.1
2023-04-06T21:45:08.218Z,7.0
2023-04-06T21:50:08.259Z,6.9
2023-04-06T21:55:08.299Z,7.1
2023-04-06T22:00:08.362Z,7.1
2023-04-06T22:05:08.668Z,7.0
2023-04-06T22:10:08.866Z,7.1
2023-04-06T22:15:08.878Z,7.0
2023-04-06T22:20:08.955Z,7.1
2023-04-06T22:25:07.974Z,7.0
2023-04-06T22:30:08.005Z,7.0
2023-04-06T22:35:08.010Z,6.9
2023-04-06T22:40:08.053Z,7.1
2023-04-06T22:45:08.114Z,6.9
2023-04-06T22:50:08.160Z,7.1
2023-04-06T22:55:08.308Z,7.1
2023-04-06T23:01:12.901Z,6.9
2023-04-06T23:05:08.923Z,7.0
2023-04-06T23:10:08.832Z,7.4
2023-04-06T23:15:08.932Z,7.4
2023-04-06T23:20:07.978Z,7.1
2023-04-06T23:25:08.051Z,7.0
2023-04-06T23:30:08.119Z,7.4
2023-04-06T23:35:08.163Z,7.4
2023-04-06T23:40:08.210Z,7.1
2023-04-06T23:45:08.231Z,7.4
2023-04-06T23:50:08.274Z,7.4
2023-04-06T23:55:08.281Z,7.0
